sensor_id;sensor_type;location;lat;lon;timestamp;P1;durP1;ratioP1;P2;durP2;ratioP2
69417;SDS011;56610;48.872;2.400;2022-11-24T00:00:48;19.42;;;5.30;;
69417;SDS011;56610;48.872;2.400;2022-11-24T00:03:14;15.75;;;4.97;;
69417;SDS011;56610;48.872;2.400;2022-11-24T00:05:39;17.17;;;4.55;;
69417;SDS011;56610;48.872;2.400;2022-11-24T00:08:05;19.13;;;4.47;;
69417;SDS011;56610;48.872;2.400;2022-11-24T00:10:33;14.88;;;4.13;;
69417;SDS011;56610;48.872;2.400;2022-11-24T00:12:59;15.30;;;4.43;;
69417;SDS011;56610;48.872;2.400;2022-11-24T00:15:24;19.17;;;4.50;;
69417;SDS011;56610;48.872;2.400;2022-11-24T00:17:50;16.40;;;4.10;;
69417;SDS011;56610;48.872;2.400;2022-11-24T00:20:16;17.00;;;4.35;;
69417;SDS011;56610;48.872;2.400;2022-11-24T00:22:41;19.77;;;4.03;;
69417;SDS011;56610;48.872;2.400;2022-11-24T00:25:07;14.70;;;4.45;;
69417;SDS011;56610;48.872;2.400;2022-11-24T00:27:32;18.40;;;4.75;;
69417;SDS011;56610;48.872;2.400;2022-11-24T00:29:58;18.02;;;4.32;;
69417;SDS011;56610;48.872;2.400;2022-11-24T00:32:26;15.15;;;4.22;;
69417;SDS011;56610;48.872;2.400;2022-11-24T00:34:52;14.48;;;3.90;;
69417;SDS011;56610;48.872;2.400;2022-11-24T00:37:38;20.65;;;4.57;;
69417;SDS011;56610;48.872;2.400;2022-11-24T00:40:04;15.57;;;3.83;;
69417;SDS011;56610;48.872;2.400;2022-11-24T00:42:30;17.95;;;4.30;;
69417;SDS011;56610;48.872;2.400;2022-11-24T00:44:55;15.55;;;3.85;;
69417;SDS011;56610;48.872;2.400;2022-11-24T00:47:21;18.13;;;4.28;;
69417;SDS011;56610;48.872;2.400;2022-11-24T00:49:47;13.98;;;3.83;;
69417;SDS011;56610;48.872;2.400;2022-11-24T00:52:12;16.77;;;4.43;;
69417;SDS011;56610;48.872;2.400;2022-11-24T00:54:38;14.20;;;3.80;;
69417;SDS011;56610;48.872;2.400;2022-11-24T00:57:03;17.52;;;4.10;;
69417;SDS011;56610;48.872;2.400;2022-11-24T00:59:29;13.43;;;3.42;;
69417;SDS011;56610;48.872;2.400;2022-11-24T01:01:56;14.80;;;3.65;;
69417;SDS011;56610;48.872;2.400;2022-11-24T01:04:22;12.57;;;3.08;;
69417;SDS011;56610;48.872;2.400;2022-11-24T01:06:47;11.15;;;2.90;;
69417;SDS011;56610;48.872;2.400;2022-11-24T01:09:13;13.23;;;3.15;;
69417;SDS011;56610;48.872;2.400;2022-11-24T01:11:38;11.38;;;3.00;;
69417;SDS011;56610;48.872;2.400;2022-11-24T01:14:23;9.48;;;2.53;;
69417;SDS011;56610;48.872;2.400;2022-11-24T01:16:49;9.10;;;2.90;;
69417;SDS011;56610;48.872;2.400;2022-11-24T01:19:15;7.60;;;2.67;;
69417;SDS011;56610;48.872;2.400;2022-11-24T01:21:41;8.65;;;2.00;;
69417;SDS011;56610;48.872;2.400;2022-11-24T01:24:06;7.63;;;2.20;;
69417;SDS011;56610;48.872;2.400;2022-11-24T01:26:33;7.20;;;2.17;;
69417;SDS011;56610;48.872;2.400;2022-11-24T01:28:58;6.38;;;2.05;;
69417;SDS011;56610;48.872;2.400;2022-11-24T01:31:24;5.57;;;1.90;;
69417;SDS011;56610;48.872;2.400;2022-11-24T01:33:50;5.78;;;1.92;;
69417;SDS011;56610;48.872;2.400;2022-11-24T01:36:17;5.55;;;1.88;;
69417;SDS011;56610;48.872;2.400;2022-11-24T01:38:43;7.32;;;1.75;;
69417;SDS011;56610;48.872;2.400;2022-11-24T01:41:10;4.43;;;1.58;;
69417;SDS011;56610;48.872;2.400;2022-11-24T01:43:37;4.80;;;1.50;;
69417;SDS011;56610;48.872;2.400;2022-11-24T01:46:09;5.22;;;1.52;;
69417;SDS011;56610;48.872;2.400;2022-11-24T01:51:25;7.28;;;1.67;;
69417;SDS011;56610;48.872;2.400;2022-11-24T01:54:00;5.95;;;1.52;;
69417;SDS011;56610;48.872;2.400;2022-11-24T01:56:30;5.15;;;1.27;;
69417;SDS011;56610;48.872;2.400;2022-11-24T01:59:00;4.85;;;1.42;;
69417;SDS011;56610;48.872;2.400;2022-11-24T02:01:29;4.20;;;1.50;;
69417;SDS011;56610;48.872;2.400;2022-11-24T02:03:56;5.07;;;1.35;;
69417;SDS011;56610;48.872;2.400;2022-11-24T02:06:22;4.28;;;1.38;;
69417;SDS011;56610;48.872;2.400;2022-11-24T02:08:57;6.60;;;1.92;;
69417;SDS011;56610;48.872;2.400;2022-11-24T02:11:32;4.65;;;1.33;;
69417;SDS011;56610;48.872;2.400;2022-11-24T02:13:59;5.00;;;1.42;;
69417;SDS011;56610;48.872;2.400;2022-11-24T02:16:25;5.40;;;1.75;;
69417;SDS011;56610;48.872;2.400;2022-11-24T02:18:52;4.82;;;1.63;;
69417;SDS011;56610;48.872;2.400;2022-11-24T02:21:18;5.10;;;1.70;;
69417;SDS011;56610;48.872;2.400;2022-11-24T02:23:48;4.20;;;1.45;;
69417;SDS011;56610;48.872;2.400;2022-11-24T02:28:58;5.13;;;1.33;;
69417;SDS011;56610;48.872;2.400;2022-11-24T02:31:24;5.05;;;1.48;;
69417;SDS011;56610;48.872;2.400;2022-11-24T02:33:49;5.25;;;1.70;;
69417;SDS011;56610;48.872;2.400;2022-11-24T02:36:15;7.70;;;1.95;;
69417;SDS011;56610;48.872;2.400;2022-11-24T02:38:41;4.47;;;1.20;;
69417;SDS011;56610;48.872;2.400;2022-11-24T02:41:07;5.22;;;1.35;;
69417;SDS011;56610;48.872;2.400;2022-11-24T02:43:38;4.78;;;1.35;;
69417;SDS011;56610;48.872;2.400;2022-11-24T02:46:07;5.60;;;1.65;;
69417;SDS011;56610;48.872;2.400;2022-11-24T02:48:34;5.55;;;1.58;;
69417;SDS011;56610;48.872;2.400;2022-11-24T02:51:00;5.45;;;1.67;;
69417;SDS011;56610;48.872;2.400;2022-11-24T02:53:26;5.97;;;2.53;;
69417;SDS011;56610;48.872;2.400;2022-11-24T02:55:52;9.73;;;2.75;;
69417;SDS011;56610;48.872;2.400;2022-11-24T02:58:18;9.77;;;3.75;;
69417;SDS011;56610;48.872;2.400;2022-11-24T03:00:43;7.00;;;3.20;;
69417;SDS011;56610;48.872;2.400;2022-11-24T03:03:09;10.18;;;7.45;;
69417;SDS011;56610;48.872;2.400;2022-11-24T03:05:35;14.85;;;9.02;;
69417;SDS011;56610;48.872;2.400;2022-11-24T03:08:00;17.00;;;8.32;;
69417;SDS011;56610;48.872;2.400;2022-11-24T03:10:26;14.45;;;7.25;;
69417;SDS011;56610;48.872;2.400;2022-11-24T03:12:53;9.20;;;4.50;;
69417;SDS011;56610;48.872;2.400;2022-11-24T03:15:19;11.13;;;6.30;;
69417;SDS011;56610;48.872;2.400;2022-11-24T03:17:45;9.32;;;4.13;;
69417;SDS011;56610;48.872;2.400;2022-11-24T03:20:10;11.68;;;7.57;;
69417;SDS011;56610;48.872;2.400;2022-11-24T03:22:36;8.85;;;3.67;;
69417;SDS011;56610;48.872;2.400;2022-11-24T03:25:02;10.63;;;4.95;;
69417;SDS011;56610;48.872;2.400;2022-11-24T03:27:29;10.25;;;2.63;;
69417;SDS011;56610;48.872;2.400;2022-11-24T03:29:55;9.48;;;2.50;;
69417;SDS011;56610;48.872;2.400;2022-11-24T03:32:21;6.78;;;2.15;;
69417;SDS011;56610;48.872;2.400;2022-11-24T03:34:46;7.97;;;2.33;;
69417;SDS011;56610;48.872;2.400;2022-11-24T03:37:12;9.50;;;2.40;;
69417;SDS011;56610;48.872;2.400;2022-11-24T03:39:38;10.10;;;2.40;;
69417;SDS011;56610;48.872;2.400;2022-11-24T03:42:03;7.00;;;1.88;;
69417;SDS011;56610;48.872;2.400;2022-11-24T03:44:29;9.02;;;2.25;;
69417;SDS011;56610;48.872;2.400;2022-11-24T03:46:54;6.55;;;2.33;;
69417;SDS011;56610;48.872;2.400;2022-11-24T03:49:20;7.18;;;2.40;;
69417;SDS011;56610;48.872;2.400;2022-11-24T03:51:46;7.03;;;2.15;;
69417;SDS011;56610;48.872;2.400;2022-11-24T03:54:11;9.77;;;2.20;;
69417;SDS011;56610;48.872;2.400;2022-11-24T03:56:37;8.80;;;2.45;;
69417;SDS011;56610;48.872;2.400;2022-11-24T03:59:02;7.82;;;2.38;;
69417;SDS011;56610;48.872;2.400;2022-11-24T04:01:28;8.30;;;2.42;;
69417;SDS011;56610;48.872;2.400;2022-11-24T04:03:53;9.65;;;2.40;;
69417;SDS011;56610;48.872;2.400;2022-11-24T04:06:19;9.65;;;2.75;;
69417;SDS011;56610;48.872;2.400;2022-11-24T04:08:44;6.90;;;1.98;;
69417;SDS011;56610;48.872;2.400;2022-11-24T04:11:10;8.02;;;2.10;;
69417;SDS011;56610;48.872;2.400;2022-11-24T04:13:56;11.13;;;2.40;;
69417;SDS011;56610;48.872;2.400;2022-11-24T04:16:21;7.93;;;2.20;;
69417;SDS011;56610;48.872;2.400;2022-11-24T04:18:47;4.40;;;1.63;;
69417;SDS011;56610;48.872;2.400;2022-11-24T04:21:12;8.25;;;2.28;;
69417;SDS011;56610;48.872;2.400;2022-11-24T04:23:38;9.65;;;2.28;;
69417;SDS011;56610;48.872;2.400;2022-11-24T04:26:03;7.55;;;2.33;;
69417;SDS011;56610;48.872;2.400;2022-11-24T04:28:29;7.47;;;2.05;;
69417;SDS011;56610;48.872;2.400;2022-11-24T04:31:00;11.68;;;2.67;;
69417;SDS011;56610;48.872;2.400;2022-11-24T04:33:26;9.45;;;2.35;;
69417;SDS011;56610;48.872;2.400;2022-11-24T04:35:52;8.10;;;2.15;;
69417;SDS011;56610;48.872;2.400;2022-11-24T04:38:17;9.38;;;2.35;;
69417;SDS011;56610;48.872;2.400;2022-11-24T04:40:43;7.28;;;2.05;;
69417;SDS011;56610;48.872;2.400;2022-11-24T04:43:08;9.80;;;2.05;;
69417;SDS011;56610;48.872;2.400;2022-11-24T04:45:34;9.32;;;1.95;;
69417;SDS011;56610;48.872;2.400;2022-11-24T04:50:46;8.45;;;2.63;;
69417;SDS011;56610;48.872;2.400;2022-11-24T04:53:12;10.30;;;2.70;;
69417;SDS011;56610;48.872;2.400;2022-11-24T04:55:38;7.47;;;2.22;;
69417;SDS011;56610;48.872;2.400;2022-11-24T04:58:06;9.70;;;2.90;;
69417;SDS011;56610;48.872;2.400;2022-11-24T05:00:33;8.88;;;2.28;;
69417;SDS011;56610;48.872;2.400;2022-11-24T05:02:59;9.68;;;2.03;;
69417;SDS011;56610;48.872;2.400;2022-11-24T05:05:25;8.48;;;2.35;;
69417;SDS011;56610;48.872;2.400;2022-11-24T05:07:50;8.88;;;2.28;;
69417;SDS011;56610;48.872;2.400;2022-11-24T05:10:16;10.63;;;2.78;;
69417;SDS011;56610;48.872;2.400;2022-11-24T05:13:00;7.75;;;1.98;;
69417;SDS011;56610;48.872;2.400;2022-11-24T05:15:26;7.65;;;2.20;;
69417;SDS011;56610;48.872;2.400;2022-11-24T05:17:52;9.23;;;2.50;;
69417;SDS011;56610;48.872;2.400;2022-11-24T05:20:18;8.15;;;2.25;;
69417;SDS011;56610;48.872;2.400;2022-11-24T05:22:44;6.95;;;1.88;;
69417;SDS011;56610;48.872;2.400;2022-11-24T05:25:10;8.90;;;2.30;;
69417;SDS011;56610;48.872;2.400;2022-11-24T05:27:37;8.77;;;2.60;;
69417;SDS011;56610;48.872;2.400;2022-11-24T05:30:03;8.60;;;2.30;;
69417;SDS011;56610;48.872;2.400;2022-11-24T05:32:29;10.55;;;2.95;;
69417;SDS011;56610;48.872;2.400;2022-11-24T05:34:54;8.68;;;2.20;;
69417;SDS011;56610;48.872;2.400;2022-11-24T05:37:20;6.75;;;1.92;;
69417;SDS011;56610;48.872;2.400;2022-11-24T05:39:46;11.32;;;2.33;;
69417;SDS011;56610;48.872;2.400;2022-11-24T05:42:12;10.13;;;2.50;;
69417;SDS011;56610;48.872;2.400;2022-11-24T05:44:56;4.90;;;1.70;;
69417;SDS011;56610;48.872;2.400;2022-11-24T05:47:22;9.30;;;2.40;;
69417;SDS011;56610;48.872;2.400;2022-11-24T05:49:48;9.88;;;2.30;;
69417;SDS011;56610;48.872;2.400;2022-11-24T05:52:13;6.03;;;2.45;;
69417;SDS011;56610;48.872;2.400;2022-11-24T05:54:40;7.28;;;1.80;;
69417;SDS011;56610;48.872;2.400;2022-11-24T05:57:05;8.23;;;2.25;;
69417;SDS011;56610;48.872;2.400;2022-11-24T05:59:31;9.80;;;2.42;;
69417;SDS011;56610;48.872;2.400;2022-11-24T06:01:57;6.85;;;2.10;;
69417;SDS011;56610;48.872;2.400;2022-11-24T06:04:22;8.88;;;2.42;;
69417;SDS011;56610;48.872;2.400;2022-11-24T06:06:48;6.78;;;1.90;;
69417;SDS011;56610;48.872;2.400;2022-11-24T06:09:13;9.90;;;2.55;;
69417;SDS011;56610;48.872;2.400;2022-11-24T06:11:39;6.95;;;2.13;;
69417;SDS011;56610;48.872;2.400;2022-11-24T06:14:05;7.65;;;2.22;;
69417;SDS011;56610;48.872;2.400;2022-11-24T06:16:30;10.00;;;2.50;;
69417;SDS011;56610;48.872;2.400;2022-11-24T06:18:56;11.68;;;3.08;;
69417;SDS011;56610;48.872;2.400;2022-11-24T06:21:21;7.47;;;2.20;;
69417;SDS011;56610;48.872;2.400;2022-11-24T06:23:47;8.05;;;2.47;;
69417;SDS011;56610;48.872;2.400;2022-11-24T06:26:13;8.77;;;2.40;;
69417;SDS011;56610;48.872;2.400;2022-11-24T06:28:39;9.50;;;2.67;;
69417;SDS011;56610;48.872;2.400;2022-11-24T06:31:05;9.15;;;2.35;;
69417;SDS011;56610;48.872;2.400;2022-11-24T06:33:34;8.85;;;2.30;;
69417;SDS011;56610;48.872;2.400;2022-11-24T06:36:01;8.18;;;2.33;;
69417;SDS011;56610;48.872;2.400;2022-11-24T06:38:29;11.50;;;2.85;;
69417;SDS011;56610;48.872;2.400;2022-11-24T06:40:58;10.82;;;3.60;;
69417;SDS011;56610;48.872;2.400;2022-11-24T06:43:25;8.80;;;3.50;;
69417;SDS011;56610;48.872;2.400;2022-11-24T06:45:54;7.70;;;4.65;;
69417;SDS011;56610;48.872;2.400;2022-11-24T06:48:21;9.13;;;5.57;;
69417;SDS011;56610;48.872;2.400;2022-11-24T06:50:47;8.82;;;4.72;;
69417;SDS011;56610;48.872;2.400;2022-11-24T06:53:13;11.70;;;4.47;;
69417;SDS011;56610;48.872;2.400;2022-11-24T06:55:39;12.45;;;4.45;;
69417;SDS011;56610;48.872;2.400;2022-11-24T06:58:05;9.18;;;2.80;;
69417;SDS011;56610;48.872;2.400;2022-11-24T07:00:31;10.55;;;2.80;;
69417;SDS011;56610;48.872;2.400;2022-11-24T07:02:59;11.02;;;2.63;;
69417;SDS011;56610;48.872;2.400;2022-11-24T07:05:25;8.10;;;2.40;;
69417;SDS011;56610;48.872;2.400;2022-11-24T07:07:51;10.30;;;3.33;;
69417;SDS011;56610;48.872;2.400;2022-11-24T07:10:17;11.82;;;2.42;;
69417;SDS011;56610;48.872;2.400;2022-11-24T07:12:42;11.25;;;2.72;;
69417;SDS011;56610;48.872;2.400;2022-11-24T07:15:08;6.75;;;2.30;;
69417;SDS011;56610;48.872;2.400;2022-11-24T07:17:37;13.68;;;2.95;;
69417;SDS011;56610;48.872;2.400;2022-11-24T07:20:04;10.20;;;3.05;;
69417;SDS011;56610;48.872;2.400;2022-11-24T07:22:31;9.52;;;2.97;;
69417;SDS011;56610;48.872;2.400;2022-11-24T07:24:57;9.93;;;2.78;;
69417;SDS011;56610;48.872;2.400;2022-11-24T07:27:23;8.63;;;2.55;;
69417;SDS011;56610;48.872;2.400;2022-11-24T07:29:48;8.55;;;2.63;;
69417;SDS011;56610;48.872;2.400;2022-11-24T07:32:14;12.02;;;2.90;;
69417;SDS011;56610;48.872;2.400;2022-11-24T07:34:40;11.05;;;2.83;;
69417;SDS011;56610;48.872;2.400;2022-11-24T07:37:05;13.55;;;2.90;;
69417;SDS011;56610;48.872;2.400;2022-11-24T07:39:31;9.82;;;3.15;;
69417;SDS011;56610;48.872;2.400;2022-11-24T07:41:57;9.75;;;2.60;;
69417;SDS011;56610;48.872;2.400;2022-11-24T07:44:23;11.32;;;2.72;;
69417;SDS011;56610;48.872;2.400;2022-11-24T07:46:49;13.60;;;3.72;;
69417;SDS011;56610;48.872;2.400;2022-11-24T07:49:15;10.88;;;2.83;;
69417;SDS011;56610;48.872;2.400;2022-11-24T07:51:41;10.65;;;2.88;;
69417;SDS011;56610;48.872;2.400;2022-11-24T07:54:07;12.75;;;3.15;;
69417;SDS011;56610;48.872;2.400;2022-11-24T07:56:34;10.32;;;3.00;;
69417;SDS011;56610;48.872;2.400;2022-11-24T07:58:59;10.32;;;3.40;;
69417;SDS011;56610;48.872;2.400;2022-11-24T08:01:26;13.48;;;3.53;;
69417;SDS011;56610;48.872;2.400;2022-11-24T08:03:52;8.95;;;3.38;;
69417;SDS011;56610;48.872;2.400;2022-11-24T08:06:18;10.40;;;3.10;;
69417;SDS011;56610;48.872;2.400;2022-11-24T08:08:43;10.90;;;3.65;;
69417;SDS011;56610;48.872;2.400;2022-11-24T08:11:10;10.88;;;3.53;;
69417;SDS011;56610;48.872;2.400;2022-11-24T08:13:37;10.55;;;3.15;;
69417;SDS011;56610;48.872;2.400;2022-11-24T08:16:13;10.45;;;3.33;;
69417;SDS011;56610;48.872;2.400;2022-11-24T08:18:41;11.73;;;3.60;;
69417;SDS011;56610;48.872;2.400;2022-11-24T08:21:07;10.43;;;3.30;;
69417;SDS011;56610;48.872;2.400;2022-11-24T08:23:37;12.45;;;3.88;;
69417;SDS011;56610;48.872;2.400;2022-11-24T08:26:06;10.13;;;3.60;;
69417;SDS011;56610;48.872;2.400;2022-11-24T08:28:35;13.98;;;3.70;;
69417;SDS011;56610;48.872;2.400;2022-11-24T08:31:36;11.30;;;3.27;;
69417;SDS011;56610;48.872;2.400;2022-11-24T08:33:57;10.38;;;3.50;;
69417;SDS011;56610;48.872;2.400;2022-11-24T08:36:23;12.88;;;3.72;;
69417;SDS011;56610;48.872;2.400;2022-11-24T08:38:53;11.30;;;3.30;;
69417;SDS011;56610;48.872;2.400;2022-11-24T08:41:20;15.30;;;3.80;;
69417;SDS011;56610;48.872;2.400;2022-11-24T08:43:46;11.20;;;3.35;;
69417;SDS011;56610;48.872;2.400;2022-11-24T08:46:14;10.88;;;3.33;;
69417;SDS011;56610;48.872;2.400;2022-11-24T08:48:41;13.88;;;3.47;;
69417;SDS011;56610;48.872;2.400;2022-11-24T08:51:14;13.88;;;3.58;;
69417;SDS011;56610;48.872;2.400;2022-11-24T08:53:41;14.43;;;3.53;;
69417;SDS011;56610;48.872;2.400;2022-11-24T08:56:08;10.38;;;3.35;;
69417;SDS011;56610;48.872;2.400;2022-11-24T08:58:35;11.13;;;3.27;;
69417;SDS011;56610;48.872;2.400;2022-11-24T09:01:08;14.43;;;3.45;;
69417;SDS011;56610;48.872;2.400;2022-11-24T09:03:36;14.30;;;3.58;;
69417;SDS011;56610;48.872;2.400;2022-11-24T09:06:03;14.50;;;3.33;;
69417;SDS011;56610;48.872;2.400;2022-11-24T09:08:29;12.30;;;3.58;;
69417;SDS011;56610;48.872;2.400;2022-11-24T09:11:02;14.55;;;3.55;;
69417;SDS011;56610;48.872;2.400;2022-11-24T09:13:32;11.05;;;3.38;;
69417;SDS011;56610;48.872;2.400;2022-11-24T09:16:02;10.43;;;3.05;;
69417;SDS011;56610;48.872;2.400;2022-11-24T09:18:29;12.98;;;3.35;;
69417;SDS011;56610;48.872;2.400;2022-11-24T09:21:04;10.25;;;3.42;;
69417;SDS011;56610;48.872;2.400;2022-11-24T09:23:31;10.05;;;2.72;;
69417;SDS011;56610;48.872;2.400;2022-11-24T09:26:01;11.82;;;3.22;;
69417;SDS011;56610;48.872;2.400;2022-11-24T09:28:28;12.40;;;3.25;;
69417;SDS011;56610;48.872;2.400;2022-11-24T09:30:54;7.65;;;2.67;;
69417;SDS011;56610;48.872;2.400;2022-11-24T09:33:19;13.18;;;3.65;;
69417;SDS011;56610;48.872;2.400;2022-11-24T09:35:48;8.30;;;2.97;;
69417;SDS011;56610;48.872;2.400;2022-11-24T09:38:14;10.70;;;3.00;;
69417;SDS011;56610;48.872;2.400;2022-11-24T09:40:39;10.18;;;2.92;;
69417;SDS011;56610;48.872;2.400;2022-11-24T09:43:07;10.68;;;3.22;;
69417;SDS011;56610;48.872;2.400;2022-11-24T09:48:26;14.82;;;4.00;;
69417;SDS011;56610;48.872;2.400;2022-11-24T09:50:55;9.32;;;2.80;;
69417;SDS011;56610;48.872;2.400;2022-11-24T09:55:50;10.15;;;3.28;;
69417;SDS011;56610;48.872;2.400;2022-11-24T10:01:28;9.82;;;3.50;;
69417;SDS011;56610;48.872;2.400;2022-11-24T10:03:55;8.02;;;2.67;;
69417;SDS011;56610;48.872;2.400;2022-11-24T10:26:07;13.38;;;3.38;;
69417;SDS011;56610;48.872;2.400;2022-11-24T10:29:00;12.20;;;3.70;;
69417;SDS011;56610;48.872;2.400;2022-11-24T10:31:36;12.82;;;3.65;;
69417;SDS011;56610;48.872;2.400;2022-11-24T10:37:11;8.30;;;3.72;;
69417;SDS011;56610;48.872;2.400;2022-11-24T10:39:48;13.77;;;4.00;;
69417;SDS011;56610;48.872;2.400;2022-11-24T10:45:15;12.88;;;4.38;;
69417;SDS011;56610;48.872;2.400;2022-11-24T10:47:43;10.97;;;3.20;;
69417;SDS011;56610;48.872;2.400;2022-11-24T10:55:08;12.63;;;3.72;;
69417;SDS011;56610;48.872;2.400;2022-11-24T10:57:38;10.10;;;3.72;;
69417;SDS011;56610;48.872;2.400;2022-11-24T11:02:42;10.45;;;3.63;;
69417;SDS011;56610;48.872;2.400;2022-11-24T11:10:40;10.80;;;3.63;;
69417;SDS011;56610;48.872;2.400;2022-11-24T11:13:29;10.68;;;3.53;;
69417;SDS011;56610;48.872;2.400;2022-11-24T11:15:56;11.25;;;3.42;;
69417;SDS011;56610;48.872;2.400;2022-11-24T11:18:40;8.98;;;3.65;;
69417;SDS011;56610;48.872;2.400;2022-11-24T11:21:21;12.40;;;3.63;;
69417;SDS011;56610;48.872;2.400;2022-11-24T11:23:59;13.05;;;4.53;;
69417;SDS011;56610;48.872;2.400;2022-11-24T11:26:30;9.68;;;3.47;;
69417;SDS011;56610;48.872;2.400;2022-11-24T11:28:59;13.70;;;4.57;;
69417;SDS011;56610;48.872;2.400;2022-11-24T11:31:31;12.25;;;3.45;;
69417;SDS011;56610;48.872;2.400;2022-11-24T11:36:24;12.27;;;3.90;;
69417;SDS011;56610;48.872;2.400;2022-11-24T11:38:50;14.45;;;4.80;;
69417;SDS011;56610;48.872;2.400;2022-11-24T11:41:23;12.55;;;3.75;;
69417;SDS011;56610;48.872;2.400;2022-11-24T11:43:56;11.82;;;3.85;;
69417;SDS011;56610;48.872;2.400;2022-11-24T11:46:28;10.77;;;3.78;;
69417;SDS011;56610;48.872;2.400;2022-11-24T11:48:55;19.13;;;5.07;;
69417;SDS011;56610;48.872;2.400;2022-11-24T11:54:21;9.48;;;3.53;;
69417;SDS011;56610;48.872;2.400;2022-11-24T11:56:53;11.18;;;4.15;;
69417;SDS011;56610;48.872;2.400;2022-11-24T12:05:10;11.38;;;4.07;;
69417;SDS011;56610;48.872;2.400;2022-11-24T12:16:26;17.70;;;4.68;;
69417;SDS011;56610;48.872;2.400;2022-11-24T12:19:18;12.73;;;3.67;;
69417;SDS011;56610;48.872;2.400;2022-11-24T12:25:12;13.27;;;4.22;;
69417;SDS011;56610;48.872;2.400;2022-11-24T12:27:52;13.40;;;4.35;;
69417;SDS011;56610;48.872;2.400;2022-11-24T12:33:42;11.93;;;3.65;;
69417;SDS011;56610;48.872;2.400;2022-11-24T12:39:04;13.23;;;4.63;;
69417;SDS011;56610;48.872;2.400;2022-11-24T12:41:43;12.75;;;4.45;;
69417;SDS011;56610;48.872;2.400;2022-11-24T12:50:05;14.02;;;4.30;;
69417;SDS011;56610;48.872;2.400;2022-11-24T12:55:18;11.35;;;3.47;;
69417;SDS011;56610;48.872;2.400;2022-11-24T13:06:17;11.60;;;3.63;;
69417;SDS011;56610;48.872;2.400;2022-11-24T13:08:47;12.52;;;3.50;;
69417;SDS011;56610;48.872;2.400;2022-11-24T13:13:57;14.18;;;3.83;;
69417;SDS011;56610;48.872;2.400;2022-11-24T13:16:24;12.68;;;4.00;;
69417;SDS011;56610;48.872;2.400;2022-11-24T13:39:56;12.88;;;3.15;;
69417;SDS011;56610;48.872;2.400;2022-11-24T13:42:24;9.43;;;2.83;;
69417;SDS011;56610;48.872;2.400;2022-11-24T13:44:51;11.63;;;3.42;;
69417;SDS011;56610;48.872;2.400;2022-11-24T13:47:29;10.25;;;3.28;;
69417;SDS011;56610;48.872;2.400;2022-11-24T13:49:55;12.20;;;3.30;;
69417;SDS011;56610;48.872;2.400;2022-11-24T13:57:38;12.10;;;3.67;;
69417;SDS011;56610;48.872;2.400;2022-11-24T14:02:42;11.05;;;3.10;;
69417;SDS011;56610;48.872;2.400;2022-11-24T14:05:12;10.38;;;3.10;;
69417;SDS011;56610;48.872;2.400;2022-11-24T14:07:45;15.68;;;3.88;;
69417;SDS011;56610;48.872;2.400;2022-11-24T14:10:17;11.45;;;3.20;;
69417;SDS011;56610;48.872;2.400;2022-11-24T14:12:46;14.55;;;3.20;;
69417;SDS011;56610;48.872;2.400;2022-11-24T14:15:32;16.13;;;4.57;;
69417;SDS011;56610;48.872;2.400;2022-11-24T14:17:59;18.58;;;4.18;;
69417;SDS011;56610;48.872;2.400;2022-11-24T14:20:26;16.92;;;3.58;;
69417;SDS011;56610;48.872;2.400;2022-11-24T14:22:53;14.80;;;4.28;;
69417;SDS011;56610;48.872;2.400;2022-11-24T14:25:20;14.48;;;3.70;;
69417;SDS011;56610;48.872;2.400;2022-11-24T14:27:51;15.73;;;4.03;;
69417;SDS011;56610;48.872;2.400;2022-11-24T14:30:19;20.08;;;4.22;;
69417;SDS011;56610;48.872;2.400;2022-11-24T14:32:56;15.20;;;3.83;;
69417;SDS011;56610;48.872;2.400;2022-11-24T14:35:30;14.27;;;3.97;;
69417;SDS011;56610;48.872;2.400;2022-11-24T14:38:00;19.48;;;4.45;;
69417;SDS011;56610;48.872;2.400;2022-11-24T14:40:36;16.13;;;4.65;;
69417;SDS011;56610;48.872;2.400;2022-11-24T14:43:25;15.70;;;4.22;;
69417;SDS011;56610;48.872;2.400;2022-11-24T14:45:57;14.57;;;3.55;;
69417;SDS011;56610;48.872;2.400;2022-11-24T14:48:32;13.82;;;3.65;;
69417;SDS011;56610;48.872;2.400;2022-11-24T14:53:33;15.38;;;4.07;;
69417;SDS011;56610;48.872;2.400;2022-11-24T14:56:09;14.63;;;3.63;;
69417;SDS011;56610;48.872;2.400;2022-11-24T14:58:52;17.58;;;3.83;;
69417;SDS011;56610;48.872;2.400;2022-11-24T15:03:55;14.95;;;3.78;;
69417;SDS011;56610;48.872;2.400;2022-11-24T15:06:35;14.35;;;4.00;;
69417;SDS011;56610;48.872;2.400;2022-11-24T15:09:01;11.80;;;3.42;;
69417;SDS011;56610;48.872;2.400;2022-11-24T15:11:30;11.30;;;3.30;;
69417;SDS011;56610;48.872;2.400;2022-11-24T15:13:57;15.18;;;3.97;;
69417;SDS011;56610;48.872;2.400;2022-11-24T15:16:23;18.52;;;4.25;;
69417;SDS011;56610;48.872;2.400;2022-11-24T15:18:56;15.60;;;4.75;;
69417;SDS011;56610;48.872;2.400;2022-11-24T15:21:33;11.20;;;3.90;;
69417;SDS011;56610;48.872;2.400;2022-11-24T15:24:05;16.55;;;4.22;;
69417;SDS011;56610;48.872;2.400;2022-11-24T15:26:38;14.15;;;3.83;;
69417;SDS011;56610;48.872;2.400;2022-11-24T15:29:03;11.52;;;3.58;;
69417;SDS011;56610;48.872;2.400;2022-11-24T15:31:29;16.52;;;3.88;;
69417;SDS011;56610;48.872;2.400;2022-11-24T15:33:56;13.00;;;4.20;;
69417;SDS011;56610;48.872;2.400;2022-11-24T15:36:21;9.55;;;3.65;;
69417;SDS011;56610;48.872;2.400;2022-11-24T15:38:47;14.63;;;3.85;;
69417;SDS011;56610;48.872;2.400;2022-11-24T15:41:15;12.63;;;3.65;;
69417;SDS011;56610;48.872;2.400;2022-11-24T15:44:02;20.60;;;4.30;;
69417;SDS011;56610;48.872;2.400;2022-11-24T15:46:29;13.48;;;3.72;;
69417;SDS011;56610;48.872;2.400;2022-11-24T15:49:01;13.88;;;3.65;;
69417;SDS011;56610;48.872;2.400;2022-11-24T15:51:28;12.05;;;3.63;;
69417;SDS011;56610;48.872;2.400;2022-11-24T15:53:54;13.40;;;4.00;;
69417;SDS011;56610;48.872;2.400;2022-11-24T15:56:39;14.80;;;4.07;;
69417;SDS011;56610;48.872;2.400;2022-11-24T15:59:06;12.68;;;3.63;;
69417;SDS011;56610;48.872;2.400;2022-11-24T16:01:40;16.02;;;4.30;;
69417;SDS011;56610;48.872;2.400;2022-11-24T16:04:07;14.43;;;4.38;;
69417;SDS011;56610;48.872;2.400;2022-11-24T16:06:33;13.35;;;4.15;;
69417;SDS011;56610;48.872;2.400;2022-11-24T16:08:59;16.23;;;3.67;;
69417;SDS011;56610;48.872;2.400;2022-11-24T16:11:25;12.52;;;3.70;;
69417;SDS011;56610;48.872;2.400;2022-11-24T16:13:51;15.68;;;3.85;;
69417;SDS011;56610;48.872;2.400;2022-11-24T16:16:17;14.70;;;4.25;;
69417;SDS011;56610;48.872;2.400;2022-11-24T16:18:42;15.55;;;4.75;;
69417;SDS011;56610;48.872;2.400;2022-11-24T16:21:09;10.82;;;3.83;;
69417;SDS011;56610;48.872;2.400;2022-11-24T16:23:35;10.68;;;3.80;;
69417;SDS011;56610;48.872;2.400;2022-11-24T16:26:01;11.07;;;3.55;;
69417;SDS011;56610;48.872;2.400;2022-11-24T16:28:28;11.67;;;3.63;;
69417;SDS011;56610;48.872;2.400;2022-11-24T16:30:54;8.32;;;2.92;;
69417;SDS011;56610;48.872;2.400;2022-11-24T16:33:21;13.53;;;3.70;;
69417;SDS011;56610;48.872;2.400;2022-11-24T16:35:47;12.65;;;3.72;;
69417;SDS011;56610;48.872;2.400;2022-11-24T16:38:14;13.63;;;3.97;;
69417;SDS011;56610;48.872;2.400;2022-11-24T16:40:40;12.77;;;3.60;;
69417;SDS011;56610;48.872;2.400;2022-11-24T16:43:06;9.95;;;3.55;;
69417;SDS011;56610;48.872;2.400;2022-11-24T16:45:31;13.63;;;3.75;;
69417;SDS011;56610;48.872;2.400;2022-11-24T16:47:57;11.18;;;3.63;;
69417;SDS011;56610;48.872;2.400;2022-11-24T16:50:24;14.20;;;3.88;;
69417;SDS011;56610;48.872;2.400;2022-11-24T16:52:50;16.70;;;4.30;;
69417;SDS011;56610;48.872;2.400;2022-11-24T16:55:16;15.07;;;3.90;;
69417;SDS011;56610;48.872;2.400;2022-11-24T16:57:42;11.95;;;3.70;;
69417;SDS011;56610;48.872;2.400;2022-11-24T17:00:07;14.13;;;3.70;;
69417;SDS011;56610;48.872;2.400;2022-11-24T17:02:34;15.57;;;3.92;;
69417;SDS011;56610;48.872;2.400;2022-11-24T17:04:59;13.82;;;3.92;;